Location Glendale, AZ, US

ob KWR6634 232045Z AUTO 24000G03KT SKC 31/03 A2978 RMK SLPNO 

2019.10.23 2045 UTC
Wind from the WSW (241 degrees) at Calm MPH ( KT) gusting to 4.0 MPH (3 KT)
Visibility    Mile(s)
Sky Conditions  clear
Temperature 87.80 F (31 C)
Dew Point 37.61 F (3 C)
Relative Humidity 17%
Pressure   29.78 in. Hg (1008 hPa)
Rain  0.00 in.
Daily Rain  in.

Station Name  My Glendale Arizona Weather Station
Longitude, Latitude  -112.20133199999998, 33.58645
Elevation 1180
Station URL www.myglendalewxs.com
Software Type VWS V15.00